createdAt,value
2018-09-23T00:01:54.841Z,93.35
2018-09-23T00:04:23.506Z,93.67
2018-09-23T00:06:52.090Z,93.70
2018-09-23T00:09:20.817Z,93.43
2018-09-23T00:11:49.406Z,92.74
2018-09-23T00:14:18.251Z,93.56
2018-09-23T00:16:46.849Z,92.88
2018-09-23T00:19:15.475Z,92.52
2018-09-23T00:21:44.174Z,92.67
2018-09-23T00:24:13.085Z,92.83
2018-09-23T00:26:41.952Z,92.76
2018-09-23T00:29:10.567Z,93.53
2018-09-23T00:31:39.798Z,92.00
2018-09-23T00:34:08.880Z,92.92
2018-09-23T00:36:37.502Z,92.43
2018-09-23T00:39:06.659Z,92.67
2018-09-23T00:41:35.562Z,92.56
2018-09-23T00:44:04.361Z,92.65
2018-09-23T00:46:32.943Z,93.20
2018-09-23T00:49:01.557Z,93.09
2018-09-23T00:51:30.238Z,92.75
2018-09-23T00:53:59.057Z,93.29
2018-09-23T00:56:27.764Z,93.70
2018-09-23T00:58:56.799Z,94.02
2018-09-23T01:01:25.436Z,94.32
2018-09-23T01:03:54.040Z,94.10
2018-09-23T01:06:22.652Z,94.06
2018-09-23T01:08:51.434Z,93.84
2018-09-23T01:11:20.056Z,94.45
2018-09-23T01:13:48.966Z,95.04
2018-09-23T01:16:17.661Z,94.87
2018-09-23T01:18:46.277Z,95.26
2018-09-23T01:21:14.900Z,94.97
2018-09-23T01:23:43.815Z,95.53
2018-09-23T01:26:13.015Z,95.49
2018-09-23T01:28:41.588Z,94.22
2018-09-23T01:31:10.251Z,94.83
2018-09-23T01:33:39.010Z,94.94
2018-09-23T01:36:07.889Z,94.66
2018-09-23T01:38:36.628Z,95.21
2018-09-23T01:41:05.421Z,95.10
2018-09-23T01:43:34.197Z,94.32
2018-09-23T01:46:02.875Z,93.59
2018-09-23T01:48:31.546Z,92.85
2018-09-23T01:51:00.482Z,92.04
2018-09-23T01:53:29.214Z,92.09
2018-09-23T01:55:57.860Z,93.02
2018-09-23T01:58:26.692Z,93.76
2018-09-23T02:00:55.367Z,94.26
2018-09-23T02:03:24.243Z,94.68
2018-09-23T02:05:52.821Z,94.64
2018-09-23T02:08:21.579Z,95.04
2018-09-23T02:10:50.181Z,94.65
2018-09-23T02:13:18.761Z,94.19
2018-09-23T02:15:47.489Z,94.64
2018-09-23T02:18:16.152Z,94.23
2018-09-23T02:20:44.779Z,93.92
2018-09-23T02:23:13.370Z,93.23
2018-09-23T02:25:41.944Z,93.56
2018-09-23T02:28:10.548Z,93.08
2018-09-23T02:30:39.162Z,92.42
2018-09-23T02:33:07.869Z,92.16
2018-09-23T02:35:36.638Z,92.71
2018-09-23T02:38:05.332Z,93.44
2018-09-23T02:40:34.434Z,93.20
2018-09-23T02:43:03.142Z,93.55
2018-09-23T02:45:31.748Z,94.68
2018-09-23T02:48:01.185Z,95.01
2018-09-23T02:50:29.753Z,94.20
2018-09-23T02:52:58.558Z,94.21
2018-09-23T02:55:27.331Z,94.67
2018-09-23T02:57:55.998Z,94.76
2018-09-23T03:00:24.845Z,94.88
2018-09-23T03:02:53.583Z,94.85
2018-09-23T03:05:22.297Z,94.33
2018-09-23T03:07:51.092Z,94.27
2018-09-23T03:10:19.774Z,94.73
2018-09-23T03:12:48.437Z,94.94
2018-09-23T03:15:17.124Z,96.04
2018-09-23T03:17:46.023Z,96.19
2018-09-23T03:20:14.808Z,95.82
2018-09-23T03:22:43.721Z,95.92
2018-09-23T03:25:12.357Z,96.07
2018-09-23T03:27:41.075Z,95.80
2018-09-23T03:30:09.756Z,96.20
2018-09-23T03:32:38.418Z,95.92
2018-09-23T03:35:07.125Z,96.16
2018-09-23T03:37:36.266Z,95.99
2018-09-23T03:40:05.117Z,96.79
2018-09-23T03:42:34.284Z,95.97
2018-09-23T03:45:02.945Z,96.58
2018-09-23T03:47:31.553Z,96.62
2018-09-23T03:50:00.263Z,95.93
2018-09-23T03:52:28.881Z,95.88
2018-09-23T03:54:57.659Z,95.86
2018-09-23T03:57:26.294Z,95.88
2018-09-23T03:59:55.129Z,96.36
2018-09-23T04:02:23.823Z,96.42
2018-09-23T04:04:52.528Z,97.36
2018-09-23T04:07:21.094Z,97.28
2018-09-23T04:09:49.755Z,96.82
2018-09-23T04:12:18.643Z,97.19
2018-09-23T04:14:47.808Z,97.00
2018-09-23T04:17:16.455Z,97.59
2018-09-23T04:19:45.321Z,97.24
2018-09-23T04:22:14.098Z,97.73
2018-09-23T04:24:44.481Z,97.43
2018-09-23T04:27:13.161Z,98.10
2018-09-23T04:29:41.914Z,98.19
2018-09-23T04:32:10.687Z,98.22
2018-09-23T04:34:39.360Z,97.82
2018-09-23T04:37:07.981Z,98.41
2018-09-23T04:39:36.974Z,98.31
2018-09-23T04:42:06.840Z,98.01
2018-09-23T04:44:35.511Z,97.90
2018-09-23T04:47:04.142Z,98.22
2018-09-23T04:49:32.932Z,97.97
2018-09-23T04:52:01.570Z,98.22
2018-09-23T04:54:30.392Z,98.30
2018-09-23T04:56:59.145Z,98.37
2018-09-23T04:59:27.870Z,98.51
2018-09-23T05:01:56.653Z,98.28
2018-09-23T05:04:25.404Z,98.43
2018-09-23T05:06:54.118Z,98.38
2018-09-23T05:09:22.780Z,98.10
2018-09-23T05:11:51.457Z,98.65
2018-09-23T05:14:20.193Z,98.28
2018-09-23T05:16:48.828Z,98.74
2018-09-23T05:19:17.650Z,98.52
2018-09-23T05:21:46.399Z,98.32
2018-09-23T05:24:15.114Z,97.83
2018-09-23T05:26:43.729Z,98.30
2018-09-23T05:29:12.373Z,98.03
2018-09-23T05:31:41.049Z,98.86
2018-09-23T05:34:09.766Z,98.46
2018-09-23T05:36:38.414Z,98.31
2018-09-23T05:39:09.606Z,98.49
2018-09-23T05:41:38.164Z,98.36
2018-09-23T05:44:07.775Z,98.14
2018-09-23T05:46:36.453Z,98.17
2018-09-23T05:49:05.096Z,97.97
2018-09-23T05:51:33.828Z,98.51
2018-09-23T05:54:02.573Z,98.34
2018-09-23T05:56:31.284Z,98.09
2018-09-23T05:58:59.987Z,98.11
2018-09-23T06:01:28.645Z,98.88
2018-09-23T06:03:57.271Z,98.32
2018-09-23T06:06:26.113Z,98.28
2018-09-23T06:08:54.876Z,98.06
2018-09-23T06:11:23.503Z,98.14
2018-09-23T06:13:52.180Z,97.75
2018-09-23T06:16:21.035Z,97.78
2018-09-23T06:18:49.734Z,97.89
2018-09-23T06:21:18.440Z,96.80
2018-09-23T06:23:47.340Z,96.30
2018-09-23T06:26:16.715Z,96.85
2018-09-23T06:28:45.435Z,96.20
2018-09-23T06:31:14.296Z,96.82
2018-09-23T06:33:43.128Z,96.13
2018-09-23T06:36:11.757Z,96.42
2018-09-23T06:38:40.477Z,96.24
2018-09-23T06:41:09.153Z,96.16
2018-09-23T06:46:36.178Z,95.97
2018-09-23T06:49:04.985Z,96.23
2018-09-23T06:51:33.894Z,95.90
2018-09-23T06:54:02.660Z,95.93
2018-09-23T06:56:31.489Z,95.46
2018-09-23T06:59:00.154Z,95.99
2018-09-23T07:01:29.750Z,96.14
2018-09-23T07:03:58.511Z,96.18
2018-09-23T07:06:27.380Z,95.46
2018-09-23T07:08:57.508Z,95.58
2018-09-23T07:11:26.248Z,94.45
2018-09-23T07:13:54.829Z,94.47
2018-09-23T07:16:23.527Z,94.71
2018-09-23T07:18:52.206Z,94.05
2018-09-23T07:21:20.871Z,94.23
2018-09-23T07:23:49.689Z,94.69
2018-09-23T07:26:18.336Z,93.72
2018-09-23T07:28:47.454Z,93.95
2018-09-23T07:31:16.524Z,94.67
2018-09-23T07:33:45.672Z,94.23
2018-09-23T07:36:14.826Z,94.41
2018-09-23T07:38:43.551Z,93.85
2018-09-23T07:41:12.231Z,93.60
2018-09-23T07:43:41.133Z,93.41
2018-09-23T07:46:09.930Z,92.33
2018-09-23T07:48:38.548Z,89.50
2018-09-23T07:51:06.993Z,89.50
2018-09-23T07:53:35.749Z,90.04
2018-09-23T07:56:04.633Z,89.36
2018-09-23T07:58:33.457Z,89.60
2018-09-23T08:01:02.176Z,88.59
2018-09-23T08:03:30.883Z,90.67
2018-09-23T08:05:59.521Z,89.31
2018-09-23T08:08:28.277Z,89.73
2018-09-23T08:10:57.044Z,90.43
2018-09-23T08:13:25.916Z,89.19
2018-09-23T08:15:54.530Z,88.30
2018-09-23T08:18:23.216Z,89.15
2018-09-23T08:20:52.000Z,88.31
2018-09-23T08:23:20.719Z,88.10
2018-09-23T08:25:49.570Z,86.54
2018-09-23T08:28:18.309Z,87.13
2018-09-23T08:30:47.030Z,88.15
2018-09-23T08:33:15.742Z,86.40
2018-09-23T08:35:44.624Z,87.63
2018-09-23T08:38:13.298Z,87.70
2018-09-23T08:40:42.777Z,87.63
2018-09-23T08:43:11.757Z,88.54
2018-09-23T08:45:40.501Z,87.90
2018-09-23T08:48:09.160Z,88.79
2018-09-23T08:50:37.865Z,88.58
2018-09-23T08:53:06.658Z,89.68
2018-09-23T08:55:35.720Z,89.03
2018-09-23T08:58:05.444Z,89.75
2018-09-23T09:00:34.266Z,89.44
2018-09-23T09:03:02.921Z,90.48
2018-09-23T09:05:31.597Z,91.56
2018-09-23T09:08:00.271Z,92.00
2018-09-23T09:10:28.942Z,91.86
2018-09-23T09:12:57.766Z,90.72
2018-09-23T09:15:26.529Z,91.83
2018-09-23T09:17:55.214Z,91.47
2018-09-23T09:20:24.238Z,91.55
2018-09-23T09:22:52.956Z,91.87
2018-09-23T09:25:21.808Z,92.74
2018-09-23T09:30:44.254Z,93.13
2018-09-23T09:33:13.429Z,91.76
2018-09-23T09:35:41.893Z,91.57
2018-09-23T09:38:10.453Z,91.72
2018-09-23T09:40:38.991Z,92.73
2018-09-23T09:43:07.597Z,92.53
2018-09-23T09:45:36.247Z,92.54
2018-09-23T09:48:06.188Z,93.11
2018-09-23T09:50:34.932Z,91.41
2018-09-23T09:53:05.387Z,91.38
2018-09-23T09:55:33.951Z,91.27
2018-09-23T09:58:04.136Z,92.01
2018-09-23T10:00:34.417Z,92.77
2018-09-23T10:03:06.593Z,92.78
2018-09-23T10:05:35.243Z,93.45
2018-09-23T10:08:06.276Z,92.28
2018-09-23T10:10:34.860Z,93.59
2018-09-23T10:13:05.294Z,93.83
2018-09-23T10:15:34.360Z,93.86
2018-09-23T10:18:04.252Z,93.37
2018-09-23T10:20:34.632Z,93.88
2018-09-23T10:23:08.117Z,92.71
2018-09-23T10:25:36.725Z,93.74
2018-09-23T10:28:06.119Z,93.07
2018-09-23T10:30:34.726Z,93.04
2018-09-23T10:33:05.727Z,92.99
2018-09-23T10:35:34.737Z,93.82
2018-09-23T10:38:05.505Z,93.88
2018-09-23T10:40:34.070Z,94.16
2018-09-23T10:43:03.648Z,94.10
2018-09-23T10:45:32.587Z,94.25
2018-09-23T10:48:03.014Z,93.14
2018-09-23T10:50:31.812Z,93.64
2018-09-23T10:53:00.701Z,93.43
2018-09-23T10:55:29.256Z,94.14
2018-09-23T10:57:57.948Z,93.28
2018-09-23T11:00:26.453Z,93.99
2018-09-23T11:02:55.118Z,93.93
2018-09-23T11:05:23.651Z,93.83
2018-09-23T11:07:52.290Z,93.53
2018-09-23T11:10:21.908Z,92.93
2018-09-23T11:12:50.702Z,92.46
2018-09-23T11:15:19.362Z,94.57
2018-09-23T11:17:47.876Z,94.94
2018-09-23T11:20:16.693Z,95.28
2018-09-23T11:22:45.283Z,95.75
2018-09-23T11:25:13.797Z,96.20
2018-09-23T11:27:42.528Z,95.65
2018-09-23T11:30:11.265Z,94.90
2018-09-23T11:32:40.469Z,94.67
2018-09-23T11:35:09.429Z,95.21
2018-09-23T11:37:38.032Z,94.87
2018-09-23T11:40:07.394Z,94.54
2018-09-23T11:42:36.247Z,95.67
2018-09-23T11:45:05.177Z,95.49
2018-09-23T11:47:33.849Z,95.89
2018-09-23T11:50:03.941Z,96.01
2018-09-23T11:52:32.614Z,96.61
2018-09-23T11:55:02.431Z,95.77
2018-09-23T11:57:31.068Z,95.71
2018-09-23T11:59:59.614Z,96.21
2018-09-23T12:02:28.480Z,96.20
2018-09-23T12:04:57.577Z,94.81
2018-09-23T12:07:28.379Z,93.42
2018-09-23T12:09:59.452Z,92.71
2018-09-23T12:12:28.029Z,92.95
2018-09-23T12:14:56.697Z,91.74
2018-09-23T12:17:25.440Z,93.14
2018-09-23T12:19:54.066Z,92.98
2018-09-23T12:22:22.709Z,93.43
2018-09-23T12:24:51.584Z,93.76
2018-09-23T12:27:20.202Z,92.29
2018-09-23T12:29:48.755Z,90.00
2018-09-23T12:32:17.279Z,89.76
2018-09-23T12:34:45.869Z,90.08
2018-09-23T12:37:14.472Z,90.62
2018-09-23T12:39:43.089Z,90.14
2018-09-23T12:42:12.102Z,91.49
2018-09-23T12:44:40.767Z,92.59
2018-09-23T12:47:09.491Z,93.24
2018-09-23T12:49:38.095Z,93.77
2018-09-23T12:52:08.672Z,93.12
2018-09-23T12:54:37.417Z,93.12
2018-09-23T12:57:06.383Z,94.04
2018-09-23T12:59:35.043Z,94.94
2018-09-23T13:02:06.207Z,95.46
2018-09-23T13:04:35.165Z,94.40
2018-09-23T13:07:05.340Z,94.83
2018-09-23T13:09:34.021Z,95.30
2018-09-23T13:12:03.758Z,95.28
2018-09-23T13:14:32.341Z,94.44
2018-09-23T13:17:00.957Z,94.75
2018-09-23T13:19:29.506Z,94.92
2018-09-23T13:21:58.256Z,95.15
2018-09-23T13:24:26.939Z,95.08
2018-09-23T13:26:55.497Z,95.61
2018-09-23T13:29:24.321Z,95.87
2018-09-23T13:31:52.972Z,95.02
2018-09-23T13:34:21.528Z,94.98
2018-09-23T13:36:50.109Z,95.66
2018-09-23T13:39:18.745Z,95.04
2018-09-23T13:41:47.574Z,94.52
2018-09-23T13:44:16.253Z,94.42
2018-09-23T13:46:44.927Z,94.64
2018-09-23T13:49:13.554Z,94.64
2018-09-23T13:51:42.453Z,94.71
2018-09-23T13:54:11.454Z,94.83
2018-09-23T13:56:40.582Z,94.25
2018-09-23T13:59:09.170Z,94.48
2018-09-23T14:01:37.784Z,94.41
2018-09-23T14:04:06.329Z,94.28
2018-09-23T14:06:35.079Z,94.47
2018-09-23T14:09:06.342Z,93.55
2018-09-23T14:11:35.157Z,93.68
2018-09-23T14:14:05.099Z,93.05
2018-09-23T14:16:34.293Z,93.44
2018-09-23T14:19:04.582Z,93.60
2018-09-23T14:21:33.233Z,94.08
2018-09-23T14:24:02.650Z,94.26
2018-09-23T14:26:31.693Z,94.69
2018-09-23T14:29:00.288Z,95.79
2018-09-23T14:31:29.157Z,95.68
2018-09-23T14:33:57.711Z,95.51
2018-09-23T14:36:26.222Z,96.29
2018-09-23T14:38:54.939Z,96.17
2018-09-23T14:41:23.554Z,96.36
2018-09-23T14:43:52.347Z,95.90
2018-09-23T14:46:21.092Z,95.60
2018-09-23T14:48:49.732Z,95.17
2018-09-23T14:51:18.443Z,94.78
2018-09-23T14:53:47.225Z,94.90
2018-09-23T14:56:16.039Z,93.67
2018-09-23T14:58:44.704Z,93.28
2018-09-23T15:01:13.270Z,93.66
2018-09-23T15:03:41.813Z,92.82
2018-09-23T15:06:10.747Z,93.97
2018-09-23T15:08:39.777Z,92.75
2018-09-23T15:11:08.760Z,93.14
2018-09-23T15:13:37.779Z,93.43
2018-09-23T15:16:06.773Z,94.06
2018-09-23T15:18:36.125Z,94.25
2018-09-23T15:21:05.317Z,94.94
2018-09-23T15:23:34.618Z,94.84
2018-09-23T15:26:07.230Z,95.02
2018-09-23T15:28:35.813Z,94.11
2018-09-23T15:31:05.618Z,93.63
2018-09-23T15:33:35.149Z,94.48
2018-09-23T15:36:07.046Z,94.96
2018-09-23T15:38:35.724Z,95.22
2018-09-23T15:41:07.206Z,95.54
2018-09-23T15:43:35.953Z,95.12
2018-09-23T15:46:07.292Z,95.11
2018-09-23T15:48:36.100Z,95.58
2018-09-23T15:51:05.773Z,95.29
2018-09-23T15:53:34.873Z,95.72
2018-09-23T15:56:06.236Z,94.63
2018-09-23T15:58:34.869Z,95.67
2018-09-23T16:01:04.751Z,94.70
2018-09-23T16:03:33.906Z,94.36
2018-09-23T16:06:04.575Z,94.24
2018-09-23T16:08:33.152Z,92.62
2018-09-23T16:11:03.141Z,94.00
2018-09-23T16:13:31.704Z,92.64
2018-09-23T16:16:00.341Z,93.50
2018-09-23T16:18:29.126Z,93.63
2018-09-23T16:20:57.630Z,92.90
2018-09-23T16:23:26.227Z,93.43
2018-09-23T16:25:54.751Z,93.43
2018-09-23T16:28:24.099Z,93.42
2018-09-23T16:30:52.659Z,93.47
2018-09-23T16:33:21.222Z,92.50
2018-09-23T16:35:49.896Z,92.77
2018-09-23T16:38:18.394Z,92.87
2018-09-23T16:40:47.421Z,92.67
2018-09-23T16:43:16.035Z,93.02
2018-09-23T16:45:44.699Z,92.95
2018-09-23T16:48:13.526Z,93.15
2018-09-23T16:50:42.065Z,93.65
2018-09-23T16:53:10.808Z,93.92
2018-09-23T16:55:39.462Z,93.51
2018-09-23T16:58:08.405Z,93.44
2018-09-23T17:00:37.047Z,93.65
2018-09-23T17:03:05.755Z,94.03
2018-09-23T17:05:34.469Z,94.23
2018-09-23T17:08:04.513Z,93.33
2018-09-23T17:10:33.226Z,94.72
2018-09-23T17:13:02.970Z,93.77
2018-09-23T17:15:31.559Z,94.00
2018-09-23T17:18:00.402Z,94.45
2018-09-23T17:20:28.999Z,93.97
2018-09-23T17:22:57.744Z,94.60
2018-09-23T17:25:26.393Z,94.70
2018-09-23T17:27:55.975Z,94.19
2018-09-23T17:30:25.707Z,94.95
2018-09-23T17:32:54.303Z,94.12
2018-09-23T17:35:23.283Z,94.04
2018-09-23T17:37:51.980Z,94.36
2018-09-23T17:40:20.655Z,94.26
2018-09-23T17:42:49.353Z,94.27
2018-09-23T17:45:17.875Z,94.18
2018-09-23T17:47:46.869Z,94.02
2018-09-23T17:50:15.687Z,94.05
2018-09-23T17:52:44.310Z,94.28
2018-09-23T17:55:12.861Z,94.04
2018-09-23T17:57:41.594Z,94.60
2018-09-23T18:00:10.557Z,95.16
2018-09-23T18:02:39.416Z,94.15
2018-09-23T18:05:08.214Z,94.88
2018-09-23T18:07:36.783Z,94.77
2018-09-23T18:10:05.588Z,94.75
2018-09-23T18:12:34.180Z,94.80
2018-09-23T18:15:03.932Z,94.79
2018-09-23T18:17:32.507Z,94.79
2018-09-23T18:20:03.274Z,94.71
2018-09-23T18:22:31.887Z,94.81
2018-09-23T18:25:00.700Z,94.46
2018-09-23T18:27:29.452Z,94.49
2018-09-23T18:29:58.287Z,94.98
2018-09-23T18:32:27.172Z,94.02
2018-09-23T18:34:55.821Z,94.88
2018-09-23T18:37:24.866Z,95.11
2018-09-23T18:39:53.652Z,95.05
2018-09-23T18:42:22.213Z,94.61
2018-09-23T18:44:55.401Z,94.99
2018-09-23T18:47:24.196Z,94.61
2018-09-23T18:49:52.934Z,94.86
2018-09-23T18:52:21.587Z,95.17
2018-09-23T18:54:55.491Z,95.10
2018-09-23T18:57:24.681Z,95.03
2018-09-23T18:59:53.568Z,94.56
2018-09-23T19:02:22.529Z,94.86
2018-09-23T19:04:52.021Z,94.45
2018-09-23T19:07:20.657Z,94.77
2018-09-23T19:09:49.351Z,93.72
2018-09-23T19:12:18.436Z,94.42
2018-09-23T19:14:47.261Z,93.13
2018-09-23T19:17:17.126Z,93.18
2018-09-23T19:19:51.034Z,92.60
2018-09-23T19:22:24.950Z,91.12
2018-09-23T19:24:53.652Z,90.70
2018-09-23T19:27:22.254Z,90.02
2018-09-23T19:29:50.947Z,90.15
2018-09-23T19:32:19.605Z,90.93
2018-09-23T19:34:48.851Z,91.23
2018-09-23T19:37:17.472Z,90.36
2018-09-23T19:39:46.104Z,91.31
2018-09-23T19:42:15.207Z,91.79
2018-09-23T19:44:43.862Z,90.81
2018-09-23T19:47:12.651Z,91.08
2018-09-23T19:49:41.515Z,91.30
2018-09-23T19:52:10.235Z,91.00
2018-09-23T19:54:38.927Z,90.90
2018-09-23T19:57:07.945Z,90.55
2018-09-23T19:59:36.588Z,90.30
2018-09-23T20:02:05.391Z,89.84
2018-09-23T20:04:34.710Z,89.48
2018-09-23T20:07:05.040Z,89.43
2018-09-23T20:09:33.744Z,89.77
2018-09-23T20:12:04.064Z,88.14
2018-09-23T20:14:32.736Z,88.85
2018-09-23T20:17:02.843Z,89.28
2018-09-23T20:19:31.383Z,90.06
2018-09-23T20:21:59.906Z,90.45
2018-09-23T20:24:28.596Z,91.64
2018-09-23T20:26:58.385Z,91.70
2018-09-23T20:29:27.197Z,92.14
2018-09-23T20:31:55.818Z,92.30
2018-09-23T20:34:24.706Z,92.31
2018-09-23T20:36:53.399Z,92.60
2018-09-23T20:39:22.247Z,92.84
2018-09-23T20:41:50.775Z,93.82
2018-09-23T20:44:19.423Z,93.55
2018-09-23T20:46:48.224Z,93.60
2018-09-23T20:49:16.712Z,93.51
2018-09-23T20:51:45.468Z,94.68
2018-09-23T20:54:13.973Z,94.12
2018-09-23T20:56:42.538Z,93.91
2018-09-23T20:59:12.197Z,93.82
2018-09-23T21:01:40.890Z,94.02
2018-09-23T21:04:09.407Z,93.79
2018-09-23T21:06:37.946Z,94.61
2018-09-23T21:09:09.279Z,94.51
2018-09-23T21:11:37.806Z,94.14
2018-09-23T21:14:06.612Z,94.10
2018-09-23T21:16:35.116Z,94.46
2018-09-23T21:19:05.811Z,94.08
2018-09-23T21:21:34.575Z,93.84
2018-09-23T21:24:07.118Z,93.19
2018-09-23T21:26:35.634Z,93.08
2018-09-23T21:29:05.154Z,93.00
2018-09-23T21:31:33.681Z,93.19
2018-09-23T21:34:05.127Z,92.50
2018-09-23T21:36:33.619Z,92.97
2018-09-23T21:39:05.012Z,92.32
2018-09-23T21:41:33.531Z,92.86
2018-09-23T21:44:03.796Z,92.58
2018-09-23T21:46:32.420Z,92.63
2018-09-23T21:49:00.947Z,93.03
2018-09-23T21:51:29.669Z,93.33
2018-09-23T21:53:58.286Z,93.37
2018-09-23T21:56:26.895Z,93.08
2018-09-23T21:58:55.603Z,93.26
2018-09-23T22:01:24.134Z,93.09
2018-09-23T22:03:52.630Z,92.09
2018-09-23T22:06:21.124Z,92.72
2018-09-23T22:08:49.644Z,91.80
2018-09-23T22:11:18.231Z,92.08
2018-09-23T22:13:46.745Z,92.22
2018-09-23T22:16:15.215Z,91.58
2018-09-23T22:18:43.956Z,92.01
2018-09-23T22:21:12.455Z,92.71
2018-09-23T22:23:40.962Z,92.40
2018-09-23T22:26:09.491Z,92.07
2018-09-23T22:28:38.173Z,92.09
2018-09-23T22:31:06.726Z,91.95
2018-09-23T22:33:35.249Z,91.00
2018-09-23T22:36:06.315Z,91.00
2018-09-23T22:38:35.154Z,89.72
2018-09-23T22:41:05.693Z,90.12
2018-09-23T22:43:34.263Z,89.43
2018-09-23T22:46:08.072Z,89.64
2018-09-23T22:48:36.660Z,89.12
2018-09-23T22:51:05.209Z,88.50
2018-09-23T22:53:33.733Z,88.88
2018-09-23T22:56:03.958Z,87.60
2018-09-23T22:58:32.791Z,88.08
2018-09-23T23:01:03.467Z,87.81
2018-09-23T23:03:31.969Z,87.96
2018-09-23T23:06:00.460Z,88.30
2018-09-23T23:08:29.047Z,87.77
2018-09-23T23:10:57.909Z,88.01
2018-09-23T23:13:26.561Z,87.57
2018-09-23T23:15:55.048Z,87.69
2018-09-23T23:18:23.566Z,87.36
2018-09-23T23:20:52.046Z,86.85
2018-09-23T23:23:20.543Z,87.41
2018-09-23T23:25:49.080Z,87.72
2018-09-23T23:28:17.862Z,87.78
2018-09-23T23:30:47.809Z,87.25
2018-09-23T23:33:16.322Z,87.83
2018-09-23T23:35:44.908Z,87.18
2018-09-23T23:38:14.112Z,87.69
2018-09-23T23:40:42.629Z,88.01
2018-09-23T23:43:11.172Z,87.25
2018-09-23T23:45:39.864Z,87.38
2018-09-23T23:48:08.342Z,87.43
2018-09-23T23:50:36.850Z,87.89
2018-09-23T23:53:07.262Z,87.79
2018-09-23T23:55:35.763Z,88.29
2018-09-23T23:58:05.638Z,87.93
